Abra del Mezquite, Mexico

7:14 AM CST on December 11, 2016 (GMT -0600)
Gen Mariano Escobedo International | | Change Station

Elev 1270 ft 25.78 °N, 100.11 °W | Updated 25 minutes ago

Fog
Fog
52 °F
Feels Like 52 °F
N
0
Wind Variable Wind from North

Today
High -- | Low -- °F
--% Chance of Precip.
Yesterday
High -- | Low -- °F
Precip. -- in
Pressure 30.07 in
Visibility 1.5 miles
Clouds Overcast 700 ft
Dew Point 50 °F
Humidity 94%
Rainfall 0.00 in
Snow Depth Not available.
7:14 AM 5:48 PM
Waxing Gibbous, 91% visible
METAR MMMY 111249Z 00000KT 1 1/2SM BR OVC007 11/10 A3007 RMK 8/6//
Pressure 30.07 in
Visibility 1.5 miles
Clouds Overcast 700 ft
Dew Point 50 °F
Humidity 94%
Rainfall 0.00 in
Snow Depth Not available.
7:14 AM 5:48 PM
Waxing Gibbous, 91% visible
METAR MMMY 111249Z 00000KT 1 1/2SM BR OVC007 11/10 A3007 RMK 8/6//

10-Day Weather Forecast

No radar image for this location.
×

Almanac

Astronomy

Dec. 11, 2016 Rise Set
Actual Time
Civil Twilight
Nautical Twilight
Astronomical Twilight
Moon
Length of Visible Light
Length of Day
Tomorrow will be .
, % of the Moon is Illuminated

Today's Extremes

Country Highs Country Lows

Community

WunderPhotos

Upload Photos

1,956,714 photos uploaded!

WunderBlog® & News

Nearby

Air Quality

  Air Quality AQ Index Pollutant
Not available.

Snow Depth

Station Depth Elevation

Earthquake Activity

City Distance Mag. Time & Date
Minimum magnitude displayed is 2.5.

Coastal Water Temperatures

Place Temperature

Stations

Nearby Weather Stations

Station Location Temp. Windchill Dew Point Humidity Wind Precip. Elev Updated Type